createdAt,value
2018-06-10T00:00:38.166Z,22.19
2018-06-10T00:01:38.110Z,22.25
2018-06-10T00:02:38.182Z,22.19
2018-06-10T00:03:38.184Z,22.19
2018-06-10T00:04:38.116Z,22.19
2018-06-10T00:05:38.140Z,22.19
2018-06-10T00:06:38.112Z,22.13
2018-06-10T00:07:38.106Z,22.19
2018-06-10T00:08:38.101Z,22.13
2018-06-10T00:09:38.090Z,22.19
2018-06-10T00:10:38.114Z,22.13
2018-06-10T00:11:38.090Z,22.13
2018-06-10T00:12:38.112Z,22.13
2018-06-10T00:13:38.137Z,22.19
2018-06-10T00:14:38.111Z,22.13
2018-06-10T00:15:38.092Z,22.13
2018-06-10T00:16:38.110Z,22.13
2018-06-10T00:17:38.125Z,22.06
2018-06-10T00:18:38.182Z,22.13
2018-06-10T00:19:38.403Z,22.06
2018-06-10T00:20:38.119Z,22.06
2018-06-10T00:21:38.117Z,22.13
2018-06-10T00:22:38.114Z,22.06
2018-06-10T00:23:38.132Z,22.13
2018-06-10T00:24:38.164Z,22.13
2018-06-10T00:25:38.109Z,22.06
2018-06-10T00:26:38.142Z,22.13
2018-06-10T00:27:38.110Z,22.06
2018-06-10T00:28:38.113Z,22.06
2018-06-10T00:29:38.131Z,22.13
2018-06-10T00:30:38.121Z,22.06
2018-06-10T00:31:38.102Z,22.13
2018-06-10T00:32:38.140Z,22.13
2018-06-10T00:33:38.109Z,22.13
2018-06-10T00:34:38.112Z,22.13
2018-06-10T00:35:38.244Z,22.13
2018-06-10T00:36:38.095Z,22.13
2018-06-10T00:37:38.105Z,22.13
2018-06-10T00:38:38.099Z,22.13
2018-06-10T00:39:38.097Z,22.13
2018-06-10T00:40:38.080Z,22.13
2018-06-10T00:41:38.094Z,22.13
2018-06-10T00:42:38.213Z,22.13
2018-06-10T00:43:38.132Z,22.13
2018-06-10T00:44:38.113Z,22.13
2018-06-10T00:45:38.115Z,22.13
2018-06-10T00:46:38.113Z,22.13
2018-06-10T00:47:38.103Z,22.06
2018-06-10T00:48:38.127Z,22.13
2018-06-10T00:49:38.085Z,22.06
2018-06-10T00:50:38.166Z,22.06
2018-06-10T00:51:38.107Z,22.13
2018-06-10T00:52:38.132Z,22.06
2018-06-10T00:53:38.127Z,22.13
2018-06-10T00:54:38.117Z,22.06
2018-06-10T00:55:38.110Z,22.06
2018-06-10T00:56:38.111Z,22.13
2018-06-10T00:57:38.099Z,22.13
2018-06-10T00:58:38.119Z,22.13
2018-06-10T00:59:38.267Z,22.13
2018-06-10T01:00:38.116Z,22.13
2018-06-10T01:01:38.222Z,22.06
2018-06-10T01:02:38.146Z,22.13
2018-06-10T01:03:38.063Z,22.06
2018-06-10T01:04:38.104Z,22.06
2018-06-10T01:05:38.085Z,22.06
2018-06-10T01:06:38.101Z,22.06
2018-06-10T01:07:38.099Z,22.06
2018-06-10T01:08:38.124Z,22.06
2018-06-10T01:09:38.093Z,22.06
2018-06-10T01:10:38.088Z,22.06
2018-06-10T01:11:38.079Z,22.06
2018-06-10T01:12:38.100Z,22
2018-06-10T01:13:38.094Z,22.06
2018-06-10T01:14:38.124Z,22
2018-06-10T01:15:38.080Z,22
2018-06-10T01:16:38.155Z,22
2018-06-10T01:17:38.098Z,22
2018-06-10T01:18:38.098Z,22
2018-06-10T01:19:38.222Z,22
2018-06-10T01:20:38.116Z,22
2018-06-10T01:21:38.133Z,22
2018-06-10T01:22:38.087Z,22
2018-06-10T01:23:38.127Z,22
2018-06-10T01:24:38.096Z,22
2018-06-10T01:25:38.214Z,22
2018-06-10T01:26:38.110Z,22
2018-06-10T01:27:38.079Z,22
2018-06-10T01:28:38.119Z,21.94
2018-06-10T01:29:38.178Z,22
2018-06-10T01:30:38.106Z,21.94
2018-06-10T01:31:38.169Z,21.94
2018-06-10T01:32:38.096Z,21.94
2018-06-10T01:33:38.073Z,21.94
2018-06-10T01:34:38.103Z,21.94
2018-06-10T01:35:38.211Z,21.94
2018-06-10T01:36:38.092Z,21.94
2018-06-10T01:37:38.153Z,22
2018-06-10T01:38:38.090Z,21.94
2018-06-10T01:39:38.075Z,21.94
2018-06-10T01:40:38.076Z,21.94
2018-06-10T01:41:38.106Z,21.94
2018-06-10T01:42:38.199Z,21.87
2018-06-10T01:43:38.091Z,21.94
2018-06-10T01:44:38.142Z,21.87
2018-06-10T01:45:38.101Z,21.94
2018-06-10T01:46:38.076Z,21.94
2018-06-10T01:47:38.072Z,21.87
2018-06-10T01:48:38.051Z,21.87
2018-06-10T01:49:38.109Z,21.87
2018-06-10T01:50:38.070Z,21.87
2018-06-10T01:51:38.086Z,21.87
2018-06-10T01:52:38.090Z,21.87
2018-06-10T01:53:38.068Z,21.87
2018-06-10T01:54:38.065Z,21.87
2018-06-10T01:55:38.072Z,21.87
2018-06-10T01:56:38.109Z,21.87
2018-06-10T01:57:38.087Z,21.87
2018-06-10T01:58:38.062Z,21.87
2018-06-10T01:59:38.077Z,21.81
2018-06-10T02:00:38.035Z,21.81
2018-06-10T02:01:38.073Z,21.81
2018-06-10T02:02:38.079Z,21.81
2018-06-10T02:03:38.063Z,21.81
2018-06-10T02:04:38.095Z,21.81
2018-06-10T02:05:38.076Z,21.81
2018-06-10T02:06:38.064Z,21.81
2018-06-10T02:07:38.082Z,21.81
2018-06-10T02:08:38.103Z,21.81
2018-06-10T02:09:38.079Z,21.81
2018-06-10T02:10:38.193Z,21.81
2018-06-10T02:11:38.129Z,21.75
2018-06-10T02:12:38.382Z,21.75
2018-06-10T02:13:38.120Z,21.75
2018-06-10T02:14:38.298Z,21.75
2018-06-10T02:15:38.084Z,21.75
2018-06-10T02:16:38.101Z,21.75
2018-06-10T02:17:38.318Z,21.69
2018-06-10T02:18:38.080Z,21.75
2018-06-10T02:19:38.087Z,21.69
2018-06-10T02:20:38.189Z,21.75
2018-06-10T02:21:38.092Z,21.75
2018-06-10T02:22:38.077Z,21.69
2018-06-10T02:23:38.165Z,21.75
2018-06-10T02:24:38.109Z,21.69
2018-06-10T02:25:38.083Z,21.69
2018-06-10T02:26:38.091Z,21.69
2018-06-10T02:27:38.052Z,21.69
2018-06-10T02:28:38.073Z,21.69
2018-06-10T02:29:38.081Z,21.62
2018-06-10T02:30:38.079Z,21.62
2018-06-10T02:31:38.118Z,21.56
2018-06-10T02:32:38.141Z,21.62
2018-06-10T02:33:38.057Z,21.56
2018-06-10T02:34:38.731Z,21.56
2018-06-10T02:35:38.105Z,21.62
2018-06-10T02:36:38.212Z,21.56
2018-06-10T02:37:38.100Z,21.56
2018-06-10T02:38:38.188Z,21.56
2018-06-10T02:39:38.069Z,21.56
2018-06-10T02:40:38.090Z,21.56
2018-06-10T02:41:38.075Z,21.5
2018-06-10T02:42:38.093Z,21.5
2018-06-10T02:43:38.320Z,21.56
2018-06-10T02:44:38.261Z,21.56
2018-06-10T02:45:38.073Z,21.5
2018-06-10T02:46:38.063Z,21.5
2018-06-10T02:47:38.081Z,21.5
2018-06-10T02:48:38.078Z,21.5
2018-06-10T02:49:38.107Z,21.5
2018-06-10T02:50:38.143Z,21.5
2018-06-10T02:51:38.376Z,21.5
2018-06-10T02:52:38.089Z,21.5
2018-06-10T02:53:38.098Z,21.5
2018-06-10T02:54:38.106Z,21.5
2018-06-10T02:55:38.194Z,21.44
2018-06-10T02:56:38.237Z,21.5
2018-06-10T02:57:38.137Z,21.44
2018-06-10T02:58:38.107Z,21.44
2018-06-10T02:59:38.127Z,21.44
2018-06-10T03:00:38.054Z,21.37
2018-06-10T03:01:38.098Z,21.37
2018-06-10T03:02:38.094Z,21.31
2018-06-10T03:03:38.094Z,21.31
2018-06-10T03:04:38.086Z,21.37
2018-06-10T03:05:38.060Z,21.31
2018-06-10T03:06:38.080Z,21.25
2018-06-10T03:07:38.101Z,21.31
2018-06-10T03:08:38.073Z,21.31
2018-06-10T03:09:38.073Z,21.31
2018-06-10T03:10:38.094Z,21.31
2018-06-10T03:11:38.037Z,21.31
2018-06-10T03:12:38.056Z,21.25
2018-06-10T03:13:38.096Z,21.25
2018-06-10T03:14:38.073Z,21.25
2018-06-10T03:15:38.059Z,21.25
2018-06-10T03:16:38.117Z,21.25
2018-06-10T03:17:38.052Z,21.25
2018-06-10T03:18:38.046Z,21.25
2018-06-10T03:19:38.122Z,21.25
2018-06-10T03:20:38.055Z,21.25
2018-06-10T03:21:38.287Z,21.25
2018-06-10T03:22:38.065Z,21.19
2018-06-10T03:23:38.330Z,21.25
2018-06-10T03:24:38.089Z,21.19
2018-06-10T03:25:38.183Z,21.19
2018-06-10T03:26:38.514Z,21.19
2018-06-10T03:27:38.060Z,21.19
2018-06-10T03:28:38.067Z,21.19
2018-06-10T03:29:38.104Z,21.19
2018-06-10T03:30:38.120Z,21.19
2018-06-10T03:31:38.158Z,21.19
2018-06-10T03:32:38.068Z,21.19
2018-06-10T03:33:38.099Z,21.19
2018-06-10T03:34:38.322Z,21.19
2018-06-10T03:35:38.086Z,21.25
2018-06-10T03:36:38.072Z,21.19
2018-06-10T03:37:38.104Z,21.25
2018-06-10T03:38:38.061Z,21.25
2018-06-10T03:39:38.079Z,21.19
2018-06-10T03:40:38.069Z,21.19
2018-06-10T03:41:38.120Z,21.19
2018-06-10T03:42:38.105Z,21.19
2018-06-10T03:43:38.037Z,21.19
2018-06-10T03:44:38.069Z,21.19
2018-06-10T03:45:38.112Z,21.19
2018-06-10T03:46:38.055Z,21.19
2018-06-10T03:47:38.061Z,21.19
2018-06-10T03:48:38.135Z,21.19
2018-06-10T03:49:38.046Z,21.19
2018-06-10T03:50:38.125Z,21.19
2018-06-10T03:51:38.079Z,21.19
2018-06-10T03:52:38.068Z,21.19
2018-06-10T03:53:38.103Z,21.19
2018-06-10T03:54:38.074Z,21.12
2018-06-10T03:55:38.090Z,21.12
2018-06-10T03:56:38.116Z,21.12
2018-06-10T03:57:38.102Z,21.12
2018-06-10T03:58:38.108Z,21.19
2018-06-10T03:59:38.082Z,21.12
2018-06-10T04:00:38.055Z,21.12
2018-06-10T04:01:38.114Z,21.12
2018-06-10T04:02:38.141Z,21.12
2018-06-10T04:03:38.207Z,21.12
2018-06-10T04:04:38.154Z,21.12
2018-06-10T04:05:38.081Z,21.12
2018-06-10T04:06:38.120Z,21.12
2018-06-10T04:07:38.072Z,21.06
2018-06-10T04:08:38.080Z,21.06
2018-06-10T04:09:38.041Z,21.06
2018-06-10T04:10:38.090Z,21.06
2018-06-10T04:11:38.037Z,21.06
2018-06-10T04:12:38.055Z,21.06
2018-06-10T04:13:38.035Z,21.06
2018-06-10T04:14:38.098Z,21.06
2018-06-10T04:15:38.078Z,21.06
2018-06-10T04:16:38.021Z,21.06
2018-06-10T04:17:38.044Z,21.06
2018-06-10T04:18:38.110Z,21.06
2018-06-10T04:19:38.040Z,21.06
2018-06-10T04:20:38.080Z,21.06
2018-06-10T04:21:38.024Z,21.06
2018-06-10T04:22:38.517Z,21.12
2018-06-10T04:23:38.016Z,21.06
2018-06-10T04:24:38.036Z,21.12
2018-06-10T04:25:38.052Z,21.12
2018-06-10T04:26:38.045Z,21.12
2018-06-10T04:27:38.072Z,21.06
2018-06-10T04:28:38.027Z,21.12
2018-06-10T04:29:38.028Z,21.06
2018-06-10T04:30:38.090Z,21.12
2018-06-10T04:31:38.059Z,21.12
2018-06-10T04:32:38.082Z,21.06
2018-06-10T04:33:38.137Z,21.06
2018-06-10T04:34:38.043Z,21.06
2018-06-10T04:35:38.079Z,21.06
2018-06-10T04:36:38.174Z,21.12
2018-06-10T04:37:38.108Z,21.06
2018-06-10T04:38:38.070Z,21.06
2018-06-10T04:39:38.018Z,21.12
2018-06-10T04:40:38.035Z,21.06
2018-06-10T04:41:38.064Z,21.12
2018-06-10T04:42:38.029Z,21.12
2018-06-10T04:43:38.249Z,21.06
2018-06-10T04:44:38.006Z,21.06
2018-06-10T04:45:38.034Z,21
2018-06-10T04:46:38.106Z,21
2018-06-10T04:47:38.124Z,21
2018-06-10T04:48:38.104Z,21
2018-06-10T04:49:38.046Z,21
2018-06-10T04:50:38.100Z,21
2018-06-10T04:51:38.031Z,21
2018-06-10T04:52:38.051Z,21
2018-06-10T04:53:38.041Z,20.94
2018-06-10T04:54:38.076Z,20.94
2018-06-10T04:55:38.011Z,20.94
2018-06-10T04:56:38.038Z,20.94
2018-06-10T04:57:38.056Z,20.94
2018-06-10T04:58:38.191Z,20.94
2018-06-10T04:59:38.102Z,20.94
2018-06-10T05:00:38.133Z,21
2018-06-10T05:01:38.114Z,21
2018-06-10T05:02:38.092Z,21
2018-06-10T05:03:38.138Z,21
2018-06-10T05:04:38.077Z,21
2018-06-10T05:05:38.009Z,21
2018-06-10T05:06:38.121Z,21
2018-06-10T05:07:38.077Z,20.94
2018-06-10T05:08:38.022Z,21
2018-06-10T05:09:38.042Z,21
2018-06-10T05:10:38.054Z,20.94
2018-06-10T05:11:38.090Z,21
2018-06-10T05:12:38.132Z,20.94
2018-06-10T05:13:38.176Z,21
2018-06-10T05:14:38.003Z,21
2018-06-10T05:15:38.079Z,21
2018-06-10T05:16:38.102Z,21
2018-06-10T05:17:38.034Z,21
2018-06-10T05:18:38.041Z,21
2018-06-10T05:19:39.114Z,21.06
2018-06-10T05:20:38.078Z,21.06
2018-06-10T05:21:39.289Z,21.06
2018-06-10T05:22:38.022Z,21.12
2018-06-10T05:23:38.041Z,21.06
2018-06-10T05:24:38.007Z,21
2018-06-10T05:25:38.008Z,21
2018-06-10T05:26:38.055Z,21
2018-06-10T05:27:38.003Z,21
2018-06-10T05:28:37.996Z,20.94
2018-06-10T05:29:38.042Z,20.94
2018-06-10T05:30:38.029Z,20.94
2018-06-10T05:31:38.057Z,20.94
2018-06-10T05:32:38.016Z,20.94
2018-06-10T05:33:38.079Z,20.88
2018-06-10T05:34:38.068Z,20.94
2018-06-10T05:35:38.048Z,20.94
2018-06-10T05:36:38.053Z,21
2018-06-10T05:37:38.024Z,20.94
2018-06-10T05:38:38.294Z,21
2018-06-10T05:39:37.991Z,21
2018-06-10T05:40:38.102Z,21
2018-06-10T05:41:38.012Z,21
2018-06-10T05:42:38.026Z,21
2018-06-10T05:43:38.140Z,21
2018-06-10T05:44:38.068Z,21
2018-06-10T05:45:38.102Z,21
2018-06-10T05:46:38.218Z,21
2018-06-10T05:47:38.160Z,21.06
2018-06-10T05:48:38.056Z,21.12
2018-06-10T05:49:38.053Z,21.12
2018-06-10T05:50:38.110Z,21.12
2018-06-10T05:51:38.037Z,21.19
2018-06-10T05:52:38.046Z,21.19
2018-06-10T05:53:38.098Z,21.19
2018-06-10T05:54:38.120Z,21.12
2018-06-10T05:55:38.199Z,21.12
2018-06-10T05:56:38.117Z,21.12
2018-06-10T05:57:38.252Z,21.19
2018-06-10T05:58:37.997Z,21.12
2018-06-10T05:59:38.161Z,21.19
2018-06-10T06:00:38.027Z,21.12
2018-06-10T06:01:38.035Z,21.12
2018-06-10T06:02:38.015Z,21.19
2018-06-10T06:03:38.078Z,21.12
2018-06-10T06:04:38.066Z,21.19
2018-06-10T06:05:38.124Z,21.19
2018-06-10T06:06:38.068Z,21.19
2018-06-10T06:07:38.074Z,21.19
2018-06-10T06:08:38.029Z,21.19
2018-06-10T06:09:37.979Z,21.25
2018-06-10T06:10:38.107Z,21.19
2018-06-10T06:11:38.131Z,21.12
2018-06-10T06:12:38.045Z,21.12
2018-06-10T06:13:38.048Z,21.12
2018-06-10T06:14:38.057Z,21.12
2018-06-10T06:15:38.069Z,21.12
2018-06-10T06:16:38.035Z,21.19
2018-06-10T06:17:38.051Z,21.19
2018-06-10T06:18:38.165Z,21.19
2018-06-10T06:19:38.259Z,21.19
2018-06-10T06:20:38.061Z,21.25
2018-06-10T06:21:38.006Z,21.31
2018-06-10T06:22:38.005Z,21.25
2018-06-10T06:23:38.008Z,21.31
2018-06-10T06:24:38.101Z,21.37
2018-06-10T06:25:38.063Z,21.31
2018-06-10T06:26:38.190Z,21.37
2018-06-10T06:27:38.098Z,21.37
2018-06-10T06:28:38.014Z,21.37
2018-06-10T06:29:38.105Z,21.44
2018-06-10T06:30:43.277Z,21.44
2018-06-10T06:31:38.113Z,21.44
2018-06-10T06:32:38.070Z,21.44
2018-06-10T06:33:38.180Z,21.44
2018-06-10T06:34:37.978Z,21.5
2018-06-10T06:35:38.016Z,21.5
2018-06-10T06:36:38.004Z,21.56
2018-06-10T06:37:37.984Z,21.62
2018-06-10T06:38:38.011Z,21.62
2018-06-10T06:39:38.026Z,21.62
2018-06-10T06:40:38.050Z,21.69
2018-06-10T06:41:38.019Z,21.69
2018-06-10T06:42:37.991Z,21.75
2018-06-10T06:43:38.046Z,21.75
2018-06-10T06:44:38.035Z,21.75
2018-06-10T06:45:37.997Z,21.81
2018-06-10T06:46:37.998Z,21.81
2018-06-10T06:47:38.049Z,21.75
2018-06-10T06:48:38.074Z,21.81
2018-06-10T06:49:37.992Z,21.81
2018-06-10T06:50:38.034Z,21.87
2018-06-10T06:51:37.987Z,21.87
2018-06-10T06:52:39.001Z,21.87
2018-06-10T06:53:37.991Z,21.94
2018-06-10T06:54:38.018Z,21.94
2018-06-10T06:55:38.035Z,21.87
2018-06-10T06:56:38.127Z,21.94
2018-06-10T06:57:38.111Z,21.94
2018-06-10T06:58:37.979Z,21.94
2018-06-10T06:59:38.096Z,21.94
2018-06-10T07:00:38.275Z,21.94
2018-06-10T07:01:38.025Z,22
2018-06-10T07:02:37.999Z,22
2018-06-10T07:03:38.183Z,22
2018-06-10T07:04:38.091Z,22
2018-06-10T07:05:38.278Z,22
2018-06-10T07:06:38.094Z,22
2018-06-10T07:07:38.182Z,22.06
2018-06-10T07:08:38.085Z,22.06
2018-06-10T07:09:38.045Z,22.06
2018-06-10T07:10:38.099Z,22.13
2018-06-10T07:11:38.544Z,22.13
2018-06-10T07:12:38.052Z,22.19
2018-06-10T07:13:37.973Z,22.19
2018-06-10T07:14:38.154Z,22.19
2018-06-10T07:15:37.996Z,22.25
2018-06-10T07:16:38.197Z,22.19
2018-06-10T07:17:38.131Z,22.19
2018-06-10T07:18:38.003Z,22.19
2018-06-10T07:19:38.096Z,22.13
2018-06-10T07:20:37.980Z,22.19
2018-06-10T07:21:38.065Z,22.13
2018-06-10T07:22:37.991Z,22.13
2018-06-10T07:23:38.378Z,22.13
2018-06-10T07:24:38.153Z,22.13
2018-06-10T07:25:38.135Z,22.19
2018-06-10T07:26:38.185Z,22.25
2018-06-10T07:27:38.120Z,22.25
2018-06-10T07:28:37.999Z,22.31
2018-06-10T07:29:37.963Z,22.31
2018-06-10T07:30:38.127Z,22.44
2018-06-10T07:31:37.967Z,22.5
2018-06-10T07:32:38.092Z,22.5
2018-06-10T07:33:38.137Z,22.5
2018-06-10T07:34:38.048Z,22.62
2018-06-10T07:35:38.132Z,22.62
2018-06-10T07:36:38.092Z,22.69
2018-06-10T07:37:38.144Z,22.69
2018-06-10T07:38:38.049Z,22.69
2018-06-10T07:39:38.031Z,22.75
2018-06-10T07:40:38.741Z,22.81
2018-06-10T07:41:38.047Z,22.81
2018-06-10T07:42:37.982Z,22.81
2018-06-10T07:43:38.154Z,22.81
2018-06-10T07:44:38.236Z,22.75
2018-06-10T07:45:38.073Z,22.75
2018-06-10T07:46:38.036Z,22.75
2018-06-10T07:47:38.009Z,22.75
2018-06-10T07:48:38.737Z,22.75
2018-06-10T07:49:37.964Z,22.69
2018-06-10T07:50:37.999Z,22.75
2018-06-10T07:51:38.023Z,22.81
2018-06-10T07:52:38.955Z,22.87
2018-06-10T07:53:37.977Z,22.94
2018-06-10T07:54:37.965Z,23
2018-06-10T07:55:38.017Z,23
2018-06-10T07:56:37.955Z,23.12
2018-06-10T07:57:38.004Z,23.19
2018-06-10T07:58:37.963Z,23.19
2018-06-10T07:59:37.987Z,23.19
2018-06-10T08:00:38.026Z,23.25
2018-06-10T08:01:37.968Z,23.19
2018-06-10T08:02:38.015Z,23.19
2018-06-10T08:03:37.974Z,23.12
2018-06-10T08:04:37.974Z,23.19
2018-06-10T08:05:38.013Z,23.19
2018-06-10T08:06:38.122Z,23.19
2018-06-10T08:07:38.086Z,23.19
2018-06-10T08:08:37.961Z,23.19
2018-06-10T08:09:38.061Z,23.25
2018-06-10T08:10:37.983Z,23.31
2018-06-10T08:11:38.095Z,23.38
2018-06-10T08:12:38.031Z,23.38
2018-06-10T08:13:38.429Z,23.38
2018-06-10T08:14:38.070Z,23.31
2018-06-10T08:15:38.053Z,23.25
2018-06-10T08:16:38.055Z,23.19
2018-06-10T08:17:37.943Z,23.19
2018-06-10T08:18:38.328Z,23.25
2018-06-10T08:19:38.055Z,23.31
2018-06-10T08:20:37.949Z,23.38
2018-06-10T08:21:38.082Z,23.38
2018-06-10T08:22:38.032Z,23.44
2018-06-10T08:23:38.086Z,23.38
2018-06-10T08:24:37.937Z,23.38
2018-06-10T08:25:38.096Z,23.38
2018-06-10T08:26:37.986Z,23.44
2018-06-10T08:27:37.954Z,23.5
2018-06-10T08:28:38.102Z,23.44
2018-06-10T08:29:38.046Z,23.56
2018-06-10T08:30:38.020Z,23.69
2018-06-10T08:31:38.048Z,23.69
2018-06-10T08:32:38.077Z,23.81
2018-06-10T08:33:38.061Z,23.87
2018-06-10T08:34:37.940Z,23.94
2018-06-10T08:35:38.093Z,24
2018-06-10T08:36:38.098Z,24
2018-06-10T08:37:37.936Z,24
2018-06-10T08:38:37.963Z,24
2018-06-10T08:39:37.963Z,24
2018-06-10T08:40:38.065Z,24.06
2018-06-10T08:41:38.074Z,24.12
2018-06-10T08:42:38.080Z,24.06
2018-06-10T08:43:38.068Z,24.12
2018-06-10T08:44:37.960Z,24.12
2018-06-10T08:45:37.948Z,24.19
2018-06-10T08:46:37.964Z,24.25
2018-06-10T08:47:37.942Z,24.31
2018-06-10T08:48:38.203Z,24.37
2018-06-10T08:49:37.982Z,24.44
2018-06-10T08:50:38.441Z,24.44
2018-06-10T08:51:37.958Z,24.5
2018-06-10T08:52:37.946Z,24.56
2018-06-10T08:53:38.033Z,24.63
2018-06-10T08:54:37.935Z,24.56
2018-06-10T08:55:38.114Z,24.56
2018-06-10T08:56:37.927Z,24.56
2018-06-10T08:57:38.090Z,24.56
2018-06-10T08:58:37.941Z,24.63
2018-06-10T08:59:37.997Z,24.63
2018-06-10T09:00:37.932Z,24.69
2018-06-10T09:01:37.955Z,24.69
2018-06-10T09:02:38.321Z,24.56
2018-06-10T09:03:37.944Z,24.63
2018-06-10T09:04:37.927Z,24.63
2018-06-10T09:05:37.919Z,24.69
2018-06-10T09:06:37.965Z,24.75
2018-06-10T09:07:37.960Z,24.81
2018-06-10T09:08:38.593Z,24.81
2018-06-10T09:09:37.925Z,24.81
2018-06-10T09:10:37.979Z,24.87
2018-06-10T09:11:37.945Z,24.87
2018-06-10T09:12:37.932Z,24.87
2018-06-10T09:13:37.971Z,24.87
2018-06-10T09:14:37.941Z,24.87
2018-06-10T09:15:37.942Z,24.94
2018-06-10T09:16:41.367Z,25
2018-06-10T09:17:37.964Z,25
2018-06-10T09:18:37.949Z,25.06
2018-06-10T09:19:37.969Z,25.06
2018-06-10T09:20:37.957Z,25.06
2018-06-10T09:21:39.544Z,25.06
2018-06-10T09:22:38.074Z,25.06
2018-06-10T09:23:37.938Z,25.12
2018-06-10T09:24:37.982Z,25.12
2018-06-10T09:25:38.122Z,25.19
2018-06-10T09:26:37.984Z,25.25
2018-06-10T09:27:38.168Z,25.25
2018-06-10T09:28:38.102Z,25.25
2018-06-10T09:29:38.081Z,25.25
2018-06-10T09:30:37.961Z,25.25
2018-06-10T09:31:37.956Z,25.25
2018-06-10T09:32:38.175Z,25.12
2018-06-10T09:33:37.951Z,25.06
2018-06-10T09:34:38.136Z,25
2018-06-10T09:35:37.924Z,25
2018-06-10T09:36:38.094Z,24.94
2018-06-10T09:37:38.238Z,24.94
2018-06-10T09:38:37.940Z,25
2018-06-10T09:39:38.234Z,25.06
2018-06-10T09:40:38.168Z,25.12
2018-06-10T09:41:38.229Z,25.19
2018-06-10T09:42:38.143Z,25.19
2018-06-10T09:43:37.951Z,25.19
2018-06-10T09:44:38.054Z,25.19
2018-06-10T09:45:37.936Z,25.12
2018-06-10T09:46:37.938Z,25.19
2018-06-10T09:47:37.955Z,25.25
2018-06-10T09:48:37.932Z,25.25
2018-06-10T09:49:38.034Z,25.19
2018-06-10T09:50:37.927Z,25.25
2018-06-10T09:51:37.945Z,25.25
2018-06-10T09:52:38.126Z,25.37
2018-06-10T09:53:37.934Z,25.37
2018-06-10T09:54:38.073Z,25.44
2018-06-10T09:55:39.952Z,25.5
2018-06-10T09:56:37.928Z,25.62
2018-06-10T09:57:37.919Z,25.56
2018-06-10T09:58:37.942Z,25.56
2018-06-10T09:59:38.127Z,25.62
2018-06-10T10:00:38.053Z,25.56
2018-06-10T10:01:38.175Z,25.56
2018-06-10T10:02:38.057Z,25.56
2018-06-10T10:03:38.064Z,25.62
2018-06-10T10:04:38.072Z,25.62
2018-06-10T10:05:38.184Z,25.62
2018-06-10T10:06:38.212Z,25.62
2018-06-10T10:07:37.902Z,25.69
2018-06-10T10:08:37.927Z,25.69
2018-06-10T10:09:37.955Z,25.75
2018-06-10T10:10:38.139Z,25.81
2018-06-10T10:11:37.971Z,25.81
2018-06-10T10:12:38.026Z,25.88
2018-06-10T10:13:38.236Z,25.88
2018-06-10T10:14:39.432Z,25.94
2018-06-10T10:15:38.179Z,25.94
2018-06-10T10:16:38.292Z,25.94
2018-06-10T10:17:38.228Z,26
2018-06-10T10:18:38.030Z,26.12
2018-06-10T10:19:38.043Z,26.06
2018-06-10T10:20:37.965Z,26.12
2018-06-10T10:21:37.929Z,26.19
2018-06-10T10:22:38.114Z,26.12
2018-06-10T10:23:37.996Z,26.12
2018-06-10T10:24:38.127Z,26.12
2018-06-10T10:25:38.471Z,26.06
2018-06-10T10:26:38.131Z,26.06
2018-06-10T10:27:38.026Z,26.06
2018-06-10T10:28:38.034Z,26.06
2018-06-10T10:29:38.458Z,26.12
2018-06-10T10:30:38.254Z,26.12
2018-06-10T10:31:38.065Z,26.19
2018-06-10T10:32:38.030Z,26.19
2018-06-10T10:33:38.064Z,26.25
2018-06-10T10:34:37.971Z,26.19
2018-06-10T10:35:38.125Z,26.25
2018-06-10T10:36:38.029Z,26.25
2018-06-10T10:37:38.104Z,26.19
2018-06-10T10:38:38.708Z,26.25
2018-06-10T10:39:37.963Z,26.19
2018-06-10T10:40:37.908Z,26.12
2018-06-10T10:41:37.959Z,26.12
2018-06-10T10:42:38.083Z,26.12
2018-06-10T10:43:38.017Z,26.19
2018-06-10T10:44:37.929Z,26.19
2018-06-10T10:45:38.071Z,26.25
2018-06-10T10:46:38.156Z,26.31
2018-06-10T10:47:37.937Z,26.44
2018-06-10T10:48:37.927Z,26.5
2018-06-10T10:49:38.076Z,26.5
2018-06-10T10:50:38.028Z,26.44
2018-06-10T10:51:38.077Z,26.5
2018-06-10T10:52:37.954Z,26.5
2018-06-10T10:53:38.059Z,26.44
2018-06-10T10:54:38.034Z,26.44
2018-06-10T10:55:37.921Z,26.5
2018-06-10T10:57:11.968Z,26.5
2018-06-10T10:57:38.088Z,26.5
2018-06-10T10:59:37.970Z,26.69
2018-06-10T11:00:42.735Z,26.69
2018-06-10T11:01:37.939Z,26.75
2018-06-10T11:02:38.023Z,26.75
2018-06-10T11:03:38.818Z,26.62
2018-06-10T11:04:38.096Z,26.69
2018-06-10T11:05:37.906Z,26.69
2018-06-10T11:06:38.789Z,26.69
2018-06-10T11:07:37.934Z,26.75
2018-06-10T11:08:37.947Z,26.75
2018-06-10T11:09:38.062Z,26.75
2018-06-10T11:10:37.967Z,26.75
2018-06-10T11:11:38.150Z,26.75
2018-06-10T11:12:38.139Z,26.81
2018-06-10T11:13:37.948Z,26.81
2018-06-10T11:14:38.170Z,26.81
2018-06-10T11:15:37.984Z,26.87
2018-06-10T11:16:38.087Z,26.94
2018-06-10T11:17:38.004Z,26.94
2018-06-10T11:18:37.968Z,27
2018-06-10T11:19:39.133Z,27.06
2018-06-10T11:20:38.123Z,27.13
2018-06-10T11:21:37.960Z,27.13
2018-06-10T11:22:37.954Z,27.19
2018-06-10T11:23:37.963Z,27.19
2018-06-10T11:24:38.057Z,27.19
2018-06-10T11:25:37.949Z,27.31
2018-06-10T11:26:39.483Z,27.31
2018-06-10T11:27:38.034Z,27.31
2018-06-10T11:28:37.995Z,27.31
2018-06-10T11:29:38.015Z,27.31
2018-06-10T11:30:37.992Z,27.37
2018-06-10T11:31:38.466Z,27.44
2018-06-10T11:32:38.312Z,27.44
2018-06-10T11:33:37.966Z,27.5
2018-06-10T11:34:38.050Z,27.5
2018-06-10T11:35:38.017Z,27.5
2018-06-10T11:36:37.979Z,27.56
2018-06-10T11:37:38.052Z,27.62
2018-06-10T11:38:38.010Z,27.62
2018-06-10T11:39:37.981Z,27.62
2018-06-10T11:40:37.996Z,27.69
2018-06-10T11:41:38.124Z,27.69
2018-06-10T11:42:38.056Z,27.69
2018-06-10T11:43:38.071Z,27.75
2018-06-10T11:44:38.075Z,27.75
2018-06-10T11:45:38.084Z,27.81
2018-06-10T11:46:38.043Z,27.81
2018-06-10T11:47:37.983Z,27.81
2018-06-10T11:48:38.078Z,27.87
2018-06-10T11:49:38.016Z,27.94
2018-06-10T11:50:38.092Z,28
2018-06-10T11:51:38.148Z,28
2018-06-10T11:52:37.981Z,28.06
2018-06-10T11:53:38.120Z,28.12
2018-06-10T11:54:38.017Z,28.19
2018-06-10T11:55:38.032Z,28.19
2018-06-10T11:56:37.996Z,28.12
2018-06-10T11:57:38.016Z,28.12
2018-06-10T11:58:38.070Z,28.19
2018-06-10T11:59:38.263Z,28.19
2018-06-10T12:00:38.167Z,28.25
2018-06-10T12:02:38.007Z,28.25
2018-06-10T12:03:38.078Z,28.31
2018-06-10T12:04:38.174Z,28.38
2018-06-10T12:05:38.131Z,28.38
2018-06-10T12:06:38.085Z,28.44
2018-06-10T12:07:38.181Z,28.5
2018-06-10T12:08:38.037Z,28.5
2018-06-10T12:09:38.058Z,28.44
2018-06-10T12:10:38.648Z,28.5
2018-06-10T12:11:38.248Z,28.5
2018-06-10T12:12:38.029Z,28.56
2018-06-10T12:13:38.243Z,28.56
2018-06-10T12:14:38.065Z,28.5
2018-06-10T12:15:38.081Z,28.56
2018-06-10T12:16:42.704Z,28.62
2018-06-10T12:17:38.030Z,28.62
2018-06-10T12:18:38.053Z,28.69
2018-06-10T12:19:38.142Z,28.69
2018-06-10T12:20:38.062Z,28.69
2018-06-10T12:21:38.181Z,28.69
2018-06-10T12:22:38.902Z,28.75
2018-06-10T12:23:38.060Z,28.81
2018-06-10T12:24:38.066Z,28.87
2018-06-10T12:25:38.340Z,28.81
2018-06-10T12:26:38.076Z,28.69
2018-06-10T12:27:38.056Z,28.62
2018-06-10T12:28:38.035Z,28.62
2018-06-10T12:29:38.172Z,28.62
2018-06-10T12:30:38.232Z,28.69
2018-06-10T12:31:38.087Z,28.81
2018-06-10T12:32:38.078Z,28.81
2018-06-10T12:33:38.036Z,28.87
2018-06-10T12:34:38.141Z,28.87
2018-06-10T12:35:38.056Z,28.87
2018-06-10T12:36:38.118Z,28.87
2018-06-10T12:37:38.070Z,28.81
2018-06-10T12:38:38.157Z,28.87
2018-06-10T12:39:38.229Z,28.94
2018-06-10T12:40:38.102Z,29
2018-06-10T12:41:38.112Z,29
2018-06-10T12:42:38.105Z,29
2018-06-10T12:43:38.181Z,29.06
2018-06-10T12:44:38.261Z,29.06
2018-06-10T12:45:38.155Z,29.06
2018-06-10T12:46:38.121Z,29.12
2018-06-10T12:47:38.097Z,29.19
2018-06-10T12:48:38.073Z,29.19
2018-06-10T12:49:38.101Z,29.19
2018-06-10T12:50:38.115Z,29.25
2018-06-10T12:51:38.117Z,29.25
2018-06-10T12:52:38.100Z,29.31
2018-06-10T12:53:38.091Z,29.25
2018-06-10T12:54:38.243Z,29.19
2018-06-10T12:55:38.146Z,29.06
2018-06-10T12:56:38.225Z,29
2018-06-10T12:57:38.106Z,29.06
2018-06-10T12:58:38.121Z,29.12
2018-06-10T12:59:38.107Z,29.12
2018-06-10T13:00:38.122Z,29.12
2018-06-10T13:01:38.216Z,29.25
2018-06-10T13:02:38.088Z,29.12
2018-06-10T13:03:38.190Z,29.19